Time;durP1;ratioP1;P1;durP2;ratioP2;P2;SDS_P1;SDS_P2;PMS_P1;PMS_P2;Temp;Humidity;BMP_temperature;BMP_pressure;BME280_temperature;BME280_humidity;BME280_pressure;Samples;Min_cycle;Max_cycle;Signal;HPM_P1;HPM_P2
2022/05/20 00:00:32;;;;;;;4.35;3.95;;;;;;;17.96;65.88;101204.00;4987647;28;20030;-16
2022/05/20 00:02:57;;;;;;;4.25;3.88;;;;;;;17.93;65.54;101209.44;4989906;28;20112;-16
2022/05/20 00:05:24;;;;;;;4.30;3.45;;;;;;;17.92;66.05;101202.38;4992179;28;20038;-16
2022/05/20 00:07:49;;;;;;;3.80;3.50;;;;;;;17.88;65.70;101206.94;4988877;28;20034;-17
2022/05/20 00:10:16;;;;;;;4.93;3.45;;;;;;;17.86;65.74;101211.44;4988110;28;20603;-16
2022/05/20 00:12:42;;;;;;;5.78;3.80;;;;;;;17.84;66.05;101215.94;4989739;28;20026;-16
2022/05/20 00:15:10;;;;;;;3.65;3.35;;;;;;;17.80;66.08;101217.84;4989836;28;20039;-16
2022/05/20 00:17:36;;;;;;;5.43;3.08;;;;;;;17.78;66.46;101222.31;4989852;28;20018;-17
2022/05/20 00:20:03;;;;;;;3.67;2.67;;;;;;;17.76;66.95;101224.19;4987422;28;20018;-17
2022/05/20 00:22:28;;;;;;;3.15;2.65;;;;;;;17.75;67.46;101232.22;4989294;28;20033;-18
2022/05/20 00:27:42;;;;;;;3.88;3.17;;;;;;;17.69;67.25;101222.63;4987350;28;20046;-16
2022/05/20 00:30:08;;;;;;;3.72;3.42;;;;;;;17.68;66.70;101228.88;4989902;28;20512;-17
2022/05/20 00:32:34;;;;;;;3.70;2.90;;;;;;;17.67;66.65;101236.00;4985899;28;20502;-16
2022/05/20 00:34:59;;;;;;;3.72;3.42;;;;;;;17.66;66.62;101242.25;4984963;28;20034;-16
2022/05/20 00:37:25;;;;;;;4.25;3.25;;;;;;;17.65;66.55;101239.63;4986153;28;20080;-16
2022/05/20 00:39:50;;;;;;;3.20;2.90;;;;;;;17.61;67.33;101246.00;4986206;28;20022;-16
2022/05/20 00:42:17;;;;;;;6.60;3.42;;;;;;;17.58;67.72;101241.63;4985595;28;20058;-21
2022/05/20 00:44:43;;;;;;;3.78;3.25;;;;;;;17.56;67.68;101251.44;4988932;28;20022;-17
2022/05/20 00:47:10;;;;;;;4.32;3.00;;;;;;;17.52;67.23;101258.69;4999969;28;20161;-17
2022/05/20 00:49:36;;;;;;;3.30;3.00;;;;;;;17.51;68.20;101259.56;5004147;28;20026;-16
2022/05/20 00:52:02;;;;;;;3.03;2.78;;;;;;;17.48;67.88;101250.81;4999054;28;20104;-17
2022/05/20 00:54:33;;;;;;;2.90;2.70;;;;;;;17.45;67.80;101251.78;4986443;28;20049;-15
2022/05/20 00:57:06;;;;;;;4.53;3.20;;;;;;;17.43;67.21;101253.59;5002769;28;20033;-17
2022/05/20 00:59:37;;;;;;;3.42;3.10;;;;;;;17.39;66.76;101257.28;5000688;28;20034;-16
2022/05/20 01:02:08;;;;;;;3.80;2.85;;;;;;;17.36;66.58;101252.91;4988002;28;20180;-18
2022/05/20 01:04:34;;;;;;;3.45;2.58;;;;;;;17.36;67.02;101271.56;4990454;28;20034;-16
2022/05/20 01:06:59;;;;;;;3.33;2.78;;;;;;;17.33;66.57;101274.31;4983264;28;20019;-17
2022/05/20 01:09:25;;;;;;;3.55;3.00;;;;;;;17.31;66.60;101271.69;4999130;28;20144;-18
2022/05/20 01:11:50;;;;;;;3.53;2.88;;;;;;;17.29;66.47;101278.88;4990276;28;20121;-17
2022/05/20 01:14:25;;;;;;;3.58;3.00;;;;;;;17.25;66.43;101274.53;4986638;28;20477;-18
2022/05/20 01:16:50;;;;;;;2.80;2.60;;;;;;;17.22;66.67;101263.06;4999640;28;20367;-16
2022/05/20 01:19:36;;;;;;;3.15;2.60;;;;;;;17.23;66.42;101279.03;4987349;28;20028;-16
2022/05/20 01:22:07;;;;;;;3.25;2.95;;;;;;;17.20;66.24;101276.44;5003816;28;20187;-17
2022/05/20 01:24:33;;;;;;;4.45;2.70;;;;;;;17.17;66.36;101279.19;4995831;28;20026;-16
2022/05/20 01:26:58;;;;;;;3.83;3.00;;;;;;;17.15;66.52;101283.69;4989405;28;20034;-15
2022/05/20 01:29:24;;;;;;;3.10;2.80;;;;;;;17.13;66.36;101285.50;5000669;28;20061;-16
2022/05/20 01:31:49;;;;;;;3.83;2.92;;;;;;;17.09;66.23;101290.06;4987554;28;20603;-16
2022/05/20 01:34:15;;;;;;;3.08;2.88;;;;;;;17.09;66.32;101281.19;4993012;28;20370;-16
2022/05/20 01:36:40;;;;;;;2.80;2.60;;;;;;;17.07;66.28;101285.69;4987737;28;20026;-17
2022/05/20 01:39:06;;;;;;;3.30;2.50;;;;;;;17.04;66.17;101284.81;4994008;28;20034;-15
2022/05/20 01:41:35;;;;;;;2.78;2.50;;;;;;;17.01;66.32;101295.56;4990653;28;20068;-16
2022/05/20 01:44:18;;;;;;;3.80;2.97;;;;;;;16.97;65.89;101290.38;4991272;28;20033;-16
2022/05/20 01:47:04;;;;;;;3.75;3.03;;;;;;;16.92;66.25;101291.38;4989238;28;20045;-16
2022/05/20 01:49:34;;;;;;;2.80;2.60;;;;;;;16.95;65.65;101298.41;5001519;28;20493;-17
2022/05/20 01:52:06;;;;;;;;;;;;;;;16.88;65.77;101289.66;4980597;28;20493;-16
2022/05/20 01:54:56;;;;;;;3.38;2.95;;;;;;;16.84;65.89;101288.00;4987779;28;19922;-16
2022/05/20 01:57:37;;;;;;;3.50;3.03;;;;;;;16.83;66.19;101290.69;4991037;28;20038;-16
2022/05/20 02:00:20;;;;;;;2.88;2.58;;;;;;;16.80;66.16;101283.66;5002128;28;20045;-16
2022/05/20 02:03:23;;;;;;;3.25;2.95;;;;;;;16.75;66.27;101282.91;5003671;28;20549;-15
2022/05/20 02:06:03;;;;;;;3.90;3.33;;;;;;;16.76;66.20;101285.53;4981735;28;20080;-19
2022/05/20 02:08:28;;;;;;;5.45;3.40;;;;;;;16.74;66.10;101286.50;4993789;28;20522;-16
2022/05/20 02:11:10;;;;;;;3.60;3.08;;;;;;;16.72;66.53;101290.97;4992740;28;20113;-16
2022/05/20 02:13:46;;;;;;;3.00;2.80;;;;;;;16.66;66.27;101287.56;4991224;28;20026;-17
2022/05/20 02:16:20;;;;;;;3.00;2.80;;;;;;;16.64;66.31;101288.53;4992968;28;20495;-16
2022/05/20 02:18:50;;;;;;;4.35;2.85;;;;;;;16.64;66.27;101296.50;4988149;28;20030;-16
2022/05/20 02:21:19;;;;;;;4.47;3.05;;;;;;;16.63;66.03;101297.41;4984698;28;20049;-18
2022/05/20 02:23:48;;;;;;;3.85;3.00;;;;;;;16.61;66.42;101293.91;4993616;28;20493;-16
2022/05/20 02:26:16;;;;;;;2.97;2.65;;;;;;;16.58;66.60;101286.00;4990881;28;20041;-16
2022/05/20 02:28:47;;;;;;;3.25;3.00;;;;;;;16.59;66.12;101282.41;4990269;28;20029;-16
2022/05/20 02:31:31;;;;;;;3.65;3.33;;;;;;;16.55;66.17;101287.81;4988660;28;20065;-17
2022/05/20 02:33:56;;;;;;;3.78;3.10;;;;;;;16.52;66.41;101287.91;5000714;28;20523;-17
2022/05/20 02:36:28;;;;;;;3.40;2.95;;;;;;;16.51;66.42;101288.81;4988498;28;20050;-15
2022/05/20 02:38:54;;;;;;;3.25;2.97;;;;;;;16.49;66.73;101287.09;4987284;28;20031;-18
2022/05/20 02:41:19;;;;;;;5.55;3.20;;;;;;;16.46;66.71;101304.03;4981202;28;20699;-16
2022/05/20 02:43:44;;;;;;;3.83;3.00;;;;;;;16.44;66.96;101300.50;4996009;28;20058;-17
2022/05/20 02:46:11;;;;;;;3.47;3.17;;;;;;;16.42;66.46;101294.34;4998633;28;20024;-16
2022/05/20 02:48:37;;;;;;;3.30;3.00;;;;;;;16.43;66.72;101293.44;4984646;28;20035;-18
2022/05/20 02:51:03;;;;;;;3.15;2.85;;;;;;;16.40;66.67;101298.84;4990140;28;20038;-16
2022/05/20 02:53:28;;;;;;;4.68;2.78;;;;;;;16.40;66.39;101298.84;4989764;28;20057;-15
2022/05/20 02:55:53;;;;;;;3.10;2.80;;;;;;;16.36;66.54;101297.16;4986426;28;20030;-17
2022/05/20 03:04:10;;;;;;;3.72;2.90;;;;;;;16.27;66.50;101309.78;4985769;28;20049;-16
2022/05/20 03:06:37;;;;;;;4.43;3.35;;;;;;;16.24;66.51;101309.84;4988217;28;20045;-18
2022/05/20 03:09:04;;;;;;;3.38;3.13;;;;;;;16.19;66.42;101306.41;4984752;28;20030;-18
2022/05/20 03:11:29;;;;;;;4.28;3.38;;;;;;;16.20;66.51;101305.50;4983572;28;20404;-18
2022/05/20 03:13:55;;;;;;;3.33;3.05;;;;;;;16.19;66.74;101314.41;4990727;28;20101;-16
2022/05/20 03:16:20;;;;;;;3.35;3.03;;;;;;;16.16;66.80;101312.69;4985727;28;20105;-16
2022/05/20 03:18:45;;;;;;;3.72;3.38;;;;;;;16.14;66.69;101308.31;4988717;28;20520;-18
2022/05/20 03:21:10;;;;;;;6.47;3.03;;;;;;;16.09;66.91;101327.03;5000753;28;20410;-18
2022/05/20 03:23:36;;;;;;;3.63;3.33;;;;;;;16.09;66.88;101321.72;4987332;28;20400;-18
2022/05/20 03:26:04;;;;;;;3.35;3.08;;;;;;;16.08;66.66;101325.28;4986752;28;20538;-17
2022/05/20 03:28:30;;;;;;;3.38;2.95;;;;;;;16.08;66.67;101324.41;4985342;28;20412;-16
2022/05/20 03:31:06;;;;;;;4.20;3.78;;;;;;;16.03;66.75;101328.03;4993006;28;20044;-16
2022/05/20 03:33:34;;;;;;;3.60;3.30;;;;;;;16.02;66.79;101328.06;4982548;28;20037;-20
2022/05/20 03:36:00;;;;;;;3.75;3.45;;;;;;;16.01;66.70;101323.66;4982979;28;20030;-16
2022/05/20 03:38:25;;;;;;;3.72;3.42;;;;;;;16.00;66.79;101333.41;4990998;28;20100;-18
2022/05/20 03:40:50;;;;;;;4.20;3.35;;;;;;;15.99;66.83;101329.03;4984008;28;20030;-16
2022/05/20 03:43:16;;;;;;;3.25;2.95;;;;;;;15.99;66.85;101338.78;4990791;28;20092;-17
2022/05/20 03:45:42;;;;;;;3.53;3.22;;;;;;;15.96;66.72;101337.06;4987972;28;20604;-17
2022/05/20 03:48:08;;;;;;;4.55;3.75;;;;;;;15.96;66.84;101341.50;4987148;28;20057;-16
2022/05/20 03:50:34;;;;;;;5.05;3.70;;;;;;;15.92;66.89;101348.66;4994958;28;20034;-18
2022/05/20 03:52:59;;;;;;;4.88;3.67;;;;;;;15.91;67.05;101344.25;4984430;28;20489;-18
2022/05/20 03:55:26;;;;;;;4.95;3.67;;;;;;;15.94;66.98;101349.47;4990412;28;20042;-16
2022/05/20 03:57:51;;;;;;;4.13;3.72;;;;;;;15.87;67.12;101353.19;4990345;28;20033;-17
2022/05/20 04:00:17;;;;;;;4.45;3.50;;;;;;;15.87;66.94;101353.19;4992310;28;20022;-16
2022/05/20 04:02:43;;;;;;;3.70;3.40;;;;;;;15.85;66.84;101365.63;4988615;28;20038;-16
2022/05/20 04:05:08;;;;;;;5.90;3.85;;;;;;;15.85;67.24;101362.97;4987371;28;20061;-18
2022/05/20 04:07:34;;;;;;;5.30;3.65;;;;;;;15.84;67.23;101374.53;4986235;28;20038;-16
2022/05/20 04:09:59;;;;;;;4.05;3.50;;;;;;;15.84;67.09;101362.09;4999303;28;20097;-16
2022/05/20 04:12:28;;;;;;;4.07;3.65;;;;;;;15.84;67.14;101364.75;4991125;28;20422;-16
2022/05/20 04:14:55;;;;;;;4.30;3.20;;;;;;;15.83;67.24;101375.41;4987574;28;20037;-16
2022/05/20 04:17:20;;;;;;;3.92;3.63;;;;;;;15.81;67.05;101369.25;4991097;28;20064;-16
2022/05/20 04:19:46;;;;;;;3.45;3.15;;;;;;;15.82;67.17;101376.31;4990154;28;20494;-18
2022/05/20 04:22:13;;;;;;;3.67;3.33;;;;;;;15.83;67.17;101383.38;4987803;28;20029;-16
2022/05/20 04:24:38;;;;;;;3.70;3.33;;;;;;;15.83;67.04;101372.75;4996984;28;20477;-15
2022/05/20 04:27:04;;;;;;;4.85;3.47;;;;;;;15.84;66.97;101374.53;4990684;28;20067;-20
2022/05/20 04:29:29;;;;;;;3.95;3.58;;;;;;;15.83;67.31;101378.06;4989707;28;20049;-18
2022/05/20 04:31:56;;;;;;;4.03;3.42;;;;;;;15.82;67.25;101374.56;5001155;28;20030;-17
2022/05/20 04:34:22;;;;;;;3.30;3.03;;;;;;;15.84;67.54;101382.50;4990429;28;20092;-16
2022/05/20 04:36:48;;;;;;;4.07;3.67;;;;;;;15.84;67.28;101383.38;4989168;28;20468;-18
2022/05/20 04:39:13;;;;;;;4.15;3.45;;;;;;;15.87;67.15;101385.13;4993593;28;20022;-16
2022/05/20 04:47:13;;;;;;;3.97;3.50;;;;;;;15.93;67.92;101386.78;4987831;28;20045;-15
2022/05/20 04:49:40;;;;;;;3.60;3.30;;;;;;;15.94;67.63;101377.88;4989491;28;20072;-16
2022/05/20 04:52:05;;;;;;;5.25;3.50;;;;;;;15.97;68.49;101386.69;4988075;28;20029;-17
2022/05/20 04:57:30;;;;;;;3.50;3.20;;;;;;;16.02;68.50;101383.94;4988319;28;20065;-16
2022/05/20 04:59:58;;;;;;;3.85;3.47;;;;;;;16.08;68.60;101388.25;4986341;28;20038;-16
2022/05/20 05:02:24;;;;;;;3.80;3.50;;;;;;;16.13;68.94;101386.38;4983067;28;20029;-17
2022/05/20 05:04:49;;;;;;;3.92;3.58;;;;;;;16.18;68.79;101381.84;4986587;28;20026;-17
2022/05/20 05:07:15;;;;;;;3.17;2.97;;;;;;;16.21;68.17;101387.06;4980283;28;20129;-15
2022/05/20 05:09:42;;;;;;;3.30;3.00;;;;;;;16.27;67.71;101392.28;4990963;28;20377;-19
2022/05/20 05:12:08;;;;;;;3.20;3.00;;;;;;;16.32;67.36;101385.97;4987698;28;20026;-16
2022/05/20 05:14:41;;;;;;;3.60;3.30;;;;;;;16.37;67.41;101378.78;4987585;28;21122;-16
2022/05/20 05:17:08;;;;;;;3.40;3.10;;;;;;;16.38;67.60;101381.38;4986917;28;20026;-17
2022/05/20 05:19:35;;;;;;;3.70;3.40;;;;;;;16.40;67.58;101370.69;4988275;28;20404;-15
2022/05/20 05:22:01;;;;;;;5.35;3.17;;;;;;;16.45;67.24;101362.63;4991830;28;20033;-17
2022/05/20 05:24:27;;;;;;;5.88;3.63;;;;;;;16.48;66.97;101358.13;4989111;28;20026;-16
2022/05/20 05:26:52;;;;;;;3.65;3.20;;;;;;;16.50;67.03;101364.28;4990851;28;20583;-17
2022/05/20 05:29:17;;;;;;;3.88;2.97;;;;;;;16.56;66.66;101365.91;4984865;28;20481;-17
2022/05/20 05:31:43;;;;;;;3.38;3.08;;;;;;;16.60;66.36;101361.41;4983271;28;20022;-18
2022/05/20 05:34:10;;;;;;;5.30;3.90;;;;;;;16.64;66.61;101355.09;4985302;28;20034;-15
2022/05/20 05:36:36;;;;;;;3.92;3.58;;;;;;;16.71;66.26;101358.47;4987560;28;20500;-17
2022/05/20 05:39:01;;;;;;;3.85;3.55;;;;;;;16.76;66.94;101352.13;4988012;28;20035;-17
2022/05/20 05:41:27;;;;;;;4.43;3.83;;;;;;;16.83;66.63;101349.31;4986128;28;20041;-17
2022/05/20 05:43:52;;;;;;;4.35;3.95;;;;;;;16.88;66.32;101350.94;4995912;28;20536;-16
2022/05/20 05:46:18;;;;;;;3.75;3.45;;;;;;;16.94;66.41;101347.25;4992496;28;20018;-16
2022/05/20 05:48:43;;;;;;;3.97;3.67;;;;;;;17.00;66.16;101346.22;4977449;28;20022;-17
2022/05/20 05:51:08;;;;;;;4.05;3.70;;;;;;;17.08;66.11;101348.72;4995891;28;20034;-17
2022/05/20 05:53:34;;;;;;;4.22;3.80;;;;;;;17.15;67.13;101347.66;4990797;28;20026;-18
2022/05/20 05:56:00;;;;;;;4.53;4.13;;;;;;;17.26;68.69;101358.91;5003633;28;20018;-17
2022/05/20 05:58:27;;;;;;;5.72;4.88;;;;;;;17.31;68.03;101367.66;4994256;28;20022;-17
2022/05/20 06:00:54;;;;;;;6.18;5.57;;;;;;;17.39;69.24;101359.47;4997344;28;20065;-17
2022/05/20 06:03:19;;;;;;;6.03;5.43;;;;;;;17.49;67.12;101361.88;4988135;28;20429;-18
2022/05/20 06:05:45;;;;;;;7.45;6.75;;;;;;;17.56;69.91;101360.78;4995576;28;20515;-17
2022/05/20 06:08:10;;;;;;;8.57;7.00;;;;;;;17.67;71.68;101363.16;4994787;28;20026;-16
2022/05/20 06:10:36;;;;;;;8.80;7.93;;;;;;;17.78;72.59;101376.22;4992706;28;20105;-16
2022/05/20 06:13:01;;;;;;;10.93;9.13;;;;;;;17.90;73.09;101385.63;4992030;28;20031;-16
2022/05/20 06:15:27;;;;;;;10.02;8.93;;;;;;;17.99;73.20;101381.84;4990240;28;20042;-18
2022/05/20 06:17:53;;;;;;;11.32;9.80;;;;;;;18.05;72.83;101382.56;4992458;28;20128;-18
2022/05/20 06:20:20;;;;;;;10.50;9.48;;;;;;;18.12;72.12;101379.72;4995844;28;20057;-15
2022/05/20 06:22:46;;;;;;;11.25;10.18;;;;;;;18.20;73.50;101372.34;4994839;28;20407;-16
2022/05/20 06:25:12;;;;;;;12.52;11.20;;;;;;;18.25;72.17;101374.88;4991797;28;20042;-16
2022/05/20 06:27:38;;;;;;;12.25;10.57;;;;;;;18.33;72.48;101376.41;4994207;28;20489;-16
2022/05/20 06:30:07;;;;;;;12.35;10.27;;;;;;;18.38;72.62;101378.06;4989322;28;20561;-16
2022/05/20 06:32:32;;;;;;;11.65;10.60;;;;;;;18.44;72.99;101372.53;4992798;28;20106;-15
2022/05/20 06:40:33;;;;;;;13.20;11.80;;;;;;;18.69;73.17;101366.41;4990716;28;20037;-15
2022/05/20 06:42:58;;;;;;;13.10;11.45;;;;;;;18.79;73.31;101365.19;4993542;28;20038;-19
2022/05/20 06:45:24;;;;;;;14.57;11.85;;;;;;;18.87;74.16;101358.72;5005766;28;20030;-16
2022/05/20 06:47:49;;;;;;;14.48;12.98;;;;;;;18.98;73.95;101353.88;4995984;28;20173;-17
2022/05/20 06:50:14;;;;;;;15.32;12.35;;;;;;;19.06;72.49;101354.53;4987335;28;20026;-16
2022/05/20 06:52:40;;;;;;;14.82;13.23;;;;;;;19.15;73.55;101341.78;4998346;28;20033;-16
2022/05/20 06:55:07;;;;;;;14.55;12.82;;;;;;;19.26;72.63;101352.09;4992412;28;20301;-16
2022/05/20 06:57:36;;;;;;;15.57;13.98;;;;;;;19.33;72.63;101348.28;4993704;28;20026;-17
2022/05/20 07:00:03;;;;;;;16.38;13.27;;;;;;;19.41;71.91;101345.34;4992926;28;20022;-17
2022/05/20 07:02:28;;;;;;;15.15;13.55;;;;;;;19.52;71.96;101345.81;4993359;28;20045;-15
2022/05/20 07:04:57;;;;;;;13.52;12.13;;;;;;;19.58;72.37;101340.22;4992945;28;20496;-16
2022/05/20 07:07:23;;;;;;;15.93;12.75;;;;;;;19.68;72.04;101337.22;4990972;28;20405;-16
2022/05/20 07:09:49;;;;;;;17.90;13.38;;;;;;;19.73;70.79;101338.81;4984624;28;20049;-16
2022/05/20 07:12:14;;;;;;;14.48;12.93;;;;;;;19.83;72.04;101331.31;4991374;28;20034;-15
2022/05/20 07:14:39;;;;;;;14.95;12.45;;;;;;;19.94;71.81;101322.84;4991861;28;20477;-17
2022/05/20 07:17:05;;;;;;;14.80;11.52;;;;;;;19.99;71.20;101315.56;4996972;28;20127;-17
2022/05/20 07:19:30;;;;;;;13.15;11.85;;;;;;;20.04;69.93;101318.03;4994403;28;20437;-15
2022/05/20 07:21:55;;;;;;;13.45;11.77;;;;;;;20.13;69.91;101314.16;4992086;28;20535;-19
2022/05/20 07:24:20;;;;;;;14.90;11.60;;;;;;;20.25;70.75;101321.69;4994398;28;20018;-17
2022/05/20 07:26:46;;;;;;;14.27;12.77;;;;;;;20.36;71.25;101317.72;4987001;28;20041;-13
2022/05/20 07:29:11;;;;;;;14.10;12.57;;;;;;;20.48;70.65;101332.44;4991309;28;20030;-17
2022/05/20 07:31:36;;;;;;;14.65;12.95;;;;;;;20.57;69.84;101325.84;4999671;28;20034;-15
2022/05/20 07:34:02;;;;;;;15.18;13.57;;;;;;;20.65;70.90;101345.16;4989811;28;20039;-16
2022/05/20 07:36:27;;;;;;;14.35;12.93;;;;;;;20.67;69.86;101327.19;4991322;28;20384;-15
2022/05/20 07:38:53;;;;;;;14.65;12.55;;;;;;;20.80;70.82;101338.25;4992567;28;20034;-16
2022/05/20 07:41:20;;;;;;;16.02;14.43;;;;;;;20.89;70.80;101337.94;4991200;28;20082;-15
2022/05/20 07:43:45;;;;;;;16.05;14.30;;;;;;;20.97;70.27;101339.41;4990055;28;20104;-14
2022/05/20 07:46:11;;;;;;;14.07;12.52;;;;;;;21.02;70.12;101337.41;4991013;28;20117;-16
2022/05/20 07:48:36;;;;;;;15.85;14.20;;;;;;;21.10;70.36;101339.72;4968421;28;20030;-15
2022/05/20 07:51:05;;;;;;;15.48;13.40;;;;;;;21.15;70.32;101341.28;4985630;28;20117;-16
2022/05/20 07:53:39;;;;;;;16.35;14.27;;;;;;;21.22;69.99;101338.34;4995155;28;20023;-16
2022/05/20 07:56:13;;;;;;;17.10;14.25;;;;;;;21.24;70.04;101341.84;4985134;28;20508;-18
2022/05/20 07:58:47;;;;;;;17.67;15.07;;;;;;;21.31;69.95;101340.63;5002304;28;20568;-17
2022/05/20 08:01:13;;;;;;;15.30;13.80;;;;;;;21.35;69.92;101344.94;4989218;28;20026;-17
2022/05/20 08:06:24;;;;;;;16.10;14.40;;;;;;;21.44;70.06;101332.88;4986877;28;20040;-16
2022/05/20 08:08:49;;;;;;;16.40;14.70;;;;;;;21.48;69.71;101341.69;4975540;28;20041;-17
2022/05/20 08:11:15;;;;;;;16.83;14.40;;;;;;;21.52;69.47;101351.34;4991605;28;20026;-16
2022/05/20 08:13:40;;;;;;;19.58;15.23;;;;;;;21.52;69.68;101351.34;4979534;28;20369;-17
2022/05/20 08:16:06;;;;;;;16.45;14.82;;;;;;;21.52;69.41;101352.22;4991421;28;20018;-18
2022/05/20 08:18:31;;;;;;;17.50;15.68;;;;;;;21.56;69.23;101346.69;4990861;28;20023;-21
2022/05/20 08:20:57;;;;;;;17.90;15.98;;;;;;;21.55;68.84;101345.84;4992651;28;20505;-16
2022/05/20 08:23:23;;;;;;;18.58;16.70;;;;;;;21.57;68.87;101349.31;5013112;28;20052;-18
2022/05/20 08:25:48;;;;;;;17.75;15.50;;;;;;;21.59;68.93;101341.19;4990479;28;20540;-20
2022/05/20 08:28:13;;;;;;;19.48;16.52;;;;;;;21.61;68.80;101340.19;4990660;28;20492;-15
2022/05/20 08:30:39;;;;;;;16.55;14.15;;;;;;;21.60;68.62;101338.44;4990022;28;20072;-19
2022/05/20 08:33:04;;;;;;;18.65;16.50;;;;;;;21.63;68.95;101338.31;4991402;28;20030;-15
2022/05/20 08:35:30;;;;;;;17.77;15.93;;;;;;;21.67;68.36;101333.66;4987612;28;20114;-15
2022/05/20 08:37:55;;;;;;;18.85;16.85;;;;;;;21.69;68.56;101325.53;4987030;28;20018;-16
2022/05/20 08:40:22;;;;;;;17.45;14.73;;;;;;;21.71;68.47;101329.03;4991266;28;20029;-15
2022/05/20 08:42:49;;;;;;;17.17;15.40;;;;;;;21.73;68.69;101325.34;4991696;28;20081;-17
2022/05/20 08:45:17;;;;;;;17.45;15.68;;;;;;;21.75;68.40;101319.94;4987622;28;20035;-15
2022/05/20 08:47:45;;;;;;;17.23;15.45;;;;;;;21.78;68.45;101322.47;4993301;28;20018;-15
2022/05/20 08:50:14;;;;;;;17.27;15.50;;;;;;;21.82;68.47;101320.50;4986306;28;20027;-15
2022/05/20 08:52:41;;;;;;;16.90;15.10;;;;;;;21.84;68.38;101313.28;4993073;28;20029;-16
2022/05/20 08:55:07;;;;;;;17.48;15.60;;;;;;;21.89;67.95;101316.59;4987803;28;20026;-14
2022/05/20 08:57:33;;;;;;;18.60;16.60;;;;;;;21.90;68.03;101307.59;4989733;28;20022;-16
2022/05/20 09:00:00;;;;;;;19.77;16.70;;;;;;;21.91;67.96;101312.91;4990566;28;20030;-17
2022/05/20 09:02:25;;;;;;;18.10;15.98;;;;;;;21.92;67.99;101309.28;4993944;28;20058;-16
2022/05/20 09:04:50;;;;;;;20.42;16.25;;;;;;;21.93;67.71;101307.47;4992785;28;20026;-16
2022/05/20 09:07:18;;;;;;;18.58;15.40;;;;;;;21.97;67.49;101302.84;4991318;28;20043;-16
2022/05/20 09:09:53;;;;;;;17.15;14.82;;;;;;;22.04;67.44;101298.91;4995973;28;20551;-14
2022/05/20 09:12:37;;;;;;;19.50;14.35;;;;;;;22.07;67.63;101290.69;4993644;28;20026;-14
2022/05/20 09:18:01;;;;;;;15.77;14.10;;;;;;;22.18;67.40;101285.66;4997497;28;20446;-16
2022/05/20 09:20:27;;;;;;;17.25;15.25;;;;;;;22.27;67.31;101289.72;5006613;28;20030;-16
2022/05/20 09:22:54;;;;;;;15.88;14.20;;;;;;;22.36;67.19;101291.09;4990032;28;20026;-16
2022/05/20 09:25:21;;;;;;;16.15;14.45;;;;;;;22.43;66.91;101284.47;4993324;28;20081;-17
2022/05/20 09:27:47;;;;;;;15.63;13.85;;;;;;;22.51;66.97;101267.94;4974121;28;20400;-16
2022/05/20 09:30:15;;;;;;;14.85;13.35;;;;;;;22.55;66.47;101257.94;4994057;28;20034;-16
2022/05/20 09:32:43;;;;;;;14.60;13.13;;;;;;;22.62;66.17;101255.81;5005568;28;20022;-17
2022/05/20 09:35:20;;;;;;;17.08;13.90;;;;;;;22.74;65.49;101249.81;4991338;28;20030;-15
2022/05/20 09:37:48;;;;;;;13.63;12.30;;;;;;;22.81;65.63;101253.06;4995375;28;20109;-16
2022/05/20 09:40:41;;;;;;;14.27;12.52;;;;;;;22.90;65.45;101244.50;4993431;28;20018;-13
2022/05/20 09:43:10;;;;;;;15.05;12.68;;;;;;;23.00;65.48;101239.50;4993126;28;20073;-15
2022/05/20 09:45:46;;;;;;;13.32;12.02;;;;;;;23.09;65.04;101238.16;4992005;28;20034;-16
2022/05/20 09:48:33;;;;;;;13.32;12.02;;;;;;;23.15;65.25;101228.91;4997362;28;20030;-16
2022/05/20 09:51:10;;;;;;;12.88;11.57;;;;;;;23.18;64.75;101221.50;4994755;28;20383;-16
2022/05/20 09:53:37;;;;;;;13.65;12.07;;;;;;;23.27;65.16;101219.31;4990992;28;20062;-17
2022/05/20 09:56:28;;;;;;;13.95;12.27;;;;;;;23.42;65.11;101223.88;4990579;28;20493;-17
2022/05/20 09:59:13;;;;;;;12.75;11.48;;;;;;;23.53;64.74;101220.59;4993071;28;20465;-18
2022/05/20 10:01:40;;;;;;;13.35;12.02;;;;;;;23.69;64.50;101209.84;4989615;28;20049;-16
2022/05/20 10:04:09;;;;;;;14.27;12.75;;;;;;;23.80;64.28;101202.94;4994559;28;20026;-13
2022/05/20 10:06:40;;;;;;;13.55;12.13;;;;;;;23.82;63.90;101201.06;4990051;28;20023;-15
2022/05/20 10:09:12;;;;;;;14.18;12.18;;;;;;;23.94;64.18;101207.56;5003822;28;20478;-19
2022/05/20 10:11:58;;;;;;;12.63;11.43;;;;;;;24.06;63.76;101205.97;4988285;28;20046;-16
2022/05/20 10:14:34;;;;;;;13.63;12.32;;;;;;;24.13;63.29;101202.00;4991753;28;20022;-17
2022/05/20 10:17:08;;;;;;;13.95;12.50;;;;;;;24.19;63.49;101190.88;4991549;28;20022;-16
2022/05/20 10:20:00;;;;;;;14.07;12.27;;;;;;;24.28;62.92;101193.97;4995580;28;20488;-18
2022/05/20 10:22:45;;;;;;;13.55;12.25;;;;;;;24.33;63.07;101187.34;4999817;28;20524;-16
2022/05/20 10:25:26;;;;;;;13.57;12.23;;;;;;;24.42;62.97;101191.34;4991275;28;20061;-16
2022/05/20 10:27:54;;;;;;;13.55;11.55;;;;;;;24.51;63.34;101181.81;4994659;28;20400;-18
2022/05/20 10:33:09;;;;;;;12.10;10.90;;;;;;;24.62;62.83;101165.00;4992969;28;20117;-16
2022/05/20 10:35:34;;;;;;;12.88;11.55;;;;;;;24.71;63.23;101168.97;4996838;28;20033;-17
2022/05/20 10:38:18;;;;;;;12.70;11.40;;;;;;;24.84;62.28;101161.84;4992180;28;20489;-16
2022/05/20 10:41:32;;;;;;;13.25;11.88;;;;;;;24.97;61.90;101163.78;4992154;28;20026;-16
2022/05/20 10:50:21;;;;;;;12.68;11.57;;;;;;;25.22;61.59;101151.47;4993395;28;20081;-17
2022/05/20 10:53:20;;;;;;;11.43;10.40;;;;;;;25.30;61.78;101149.13;4991113;28;20237;-15
2022/05/20 10:56:24;;;;;;;12.65;11.50;;;;;;;25.41;62.22;101151.13;4996803;28;20033;-16
2022/05/20 10:59:08;;;;;;;14.30;10.38;;;;;;;25.40;61.40;101138.59;4990413;28;20026;-18
2022/05/20 11:01:52;;;;;;;12.20;10.23;;;;;;;25.39;60.80;101136.88;4983833;28;20022;-16
2022/05/20 11:04:35;;;;;;;11.35;10.18;;;;;;;25.41;60.23;101124.13;4990105;28;20037;-16
2022/05/20 11:07:30;;;;;;;11.80;10.60;;;;;;;25.45;60.96;101130.22;4980627;28;20501;-16
2022/05/20 11:10:14;;;;;;;13.55;12.25;;;;;;;25.50;60.35;101128.94;4989605;28;20280;-17
2022/05/20 11:13:01;;;;;;;12.20;11.10;;;;;;;25.57;60.45;101134.81;4992982;28;20388;-16
2022/05/20 11:15:33;;;;;;;11.75;10.75;;;;;;;25.61;60.60;101120.16;4989328;28;20021;-17
2022/05/20 11:18:02;;;;;;;13.60;12.20;;;;;;;25.66;60.40;101100.09;4987644;28;20085;-16
2022/05/20 11:20:37;;;;;;;11.80;10.80;;;;;;;25.66;61.31;101100.97;5002342;28;20026;-17
2022/05/20 11:23:05;;;;;;;12.10;10.90;;;;;;;25.69;60.38;101089.97;5003145;28;20559;-17
2022/05/20 11:25:59;;;;;;;13.00;11.70;;;;;;;25.74;60.32;101079.69;4989021;28;20112;-18
2022/05/20 11:28:39;;;;;;;11.93;10.73;;;;;;;25.79;59.98;101073.13;4998239;28;20022;-16
2022/05/20 11:31:25;;;;;;;11.55;10.57;;;;;;;25.83;59.65;101061.13;4991726;28;20137;-18
2022/05/20 11:34:09;;;;;;;10.77;9.70;;;;;;;25.84;59.96;101073.69;4993090;28;20029;-17
2022/05/20 11:36:50;;;;;;;11.35;10.40;;;;;;;25.85;59.61;101068.19;4989708;28;20370;-16
2022/05/20 11:39:21;;;;;;;;;;;;;;;25.86;59.63;101059.09;4992453;28;20093;-15
2022/05/20 11:42:12;;;;;;;11.10;10.10;;;;;;;25.96;59.92;101055.75;4989185;28;19920;-14
2022/05/20 11:45:11;;;;;;;10.95;10.05;;;;;;;26.00;60.05;101055.44;4993595;28;20117;-15
2022/05/20 11:48:25;;;;;;;11.20;10.10;;;;;;;26.08;59.64;101049.50;4990038;28;20026;-17
2022/05/20 11:51:09;;;;;;;13.73;12.32;;;;;;;26.30;59.87;101039.09;4990106;28;20070;-16
2022/05/20 11:53:42;;;;;;;13.57;12.32;;;;;;;26.42;60.12;101040.03;4993916;28;20417;-16
2022/05/20 11:56:14;;;;;;;10.82;9.93;;;;;;;26.43;59.73;101036.34;4988831;28;20499;-17
2022/05/20 11:58:58;;;;;;;12.23;11.13;;;;;;;26.47;58.84;101035.19;4990886;28;20033;-17
2022/05/20 12:01:25;;;;;;;12.02;10.98;;;;;;;26.54;59.23;101041.00;4991775;28;20061;-16
2022/05/20 12:04:09;;;;;;;12.65;11.43;;;;;;;26.59;59.10;101055.06;4996634;28;20026;-17
2022/05/20 12:06:48;;;;;;;12.13;11.00;;;;;;;26.66;58.29;101056.34;4995142;28;20110;-16
2022/05/20 12:09:25;;;;;;;12.15;11.05;;;;;;;26.70;58.13;101059.69;4986432;28;20424;-16